sensor_id;sensor_type;location;lat;lon;timestamp;pressure;altitude;pressure_sealevel;temperature;humidity
64243;BME280;50573;51.512;5.386;2023-09-19T00:02:32;168536.59;;;15.11;100.00
64243;BME280;50573;51.512;5.386;2023-09-19T00:12:35;168517.97;;;15.04;100.00
64243;BME280;50573;51.512;5.386;2023-09-19T00:22:43;168484.78;;;14.92;100.00
64243;BME280;50573;51.512;5.386;2023-09-19T00:32:46;168478.16;;;14.89;100.00
64243;BME280;50573;51.512;5.386;2023-09-19T00:42:52;168460.88;;;14.83;100.00
64243;BME280;50573;51.512;5.386;2023-09-19T00:53:01;168452.91;;;14.80;100.00
64243;BME280;50573;51.512;5.386;2023-09-19T01:03:11;168417.00;;;14.66;100.00
64243;BME280;50573;51.512;5.386;2023-09-19T01:13:22;168391.78;;;14.57;100.00
64243;BME280;50573;51.512;5.386;2023-09-19T01:23:42;168374.50;;;14.50;100.00
64243;BME280;50573;51.512;5.386;2023-09-19T01:34:00;168369.16;;;14.48;100.00
64243;BME280;50573;51.512;5.386;2023-09-19T01:44:12;168361.22;;;14.45;100.00
64243;BME280;50573;51.512;5.386;2023-09-19T01:54:26;168335.97;;;14.36;100.00
64243;BME280;50573;51.512;5.386;2023-09-19T02:04:29;168325.31;;;14.32;100.00
64243;BME280;50573;51.512;5.386;2023-09-19T02:14:34;168322.69;;;14.31;100.00
64243;BME280;50573;51.512;5.386;2023-09-19T02:24:37;168288.09;;;14.18;100.00
64243;BME280;50573;51.512;5.386;2023-09-19T02:34:42;168264.19;;;14.09;100.00
64243;BME280;50573;51.512;5.386;2023-09-19T02:44:46;168245.59;;;14.02;100.00
64243;BME280;50573;51.512;5.386;2023-09-19T02:54:51;168215.03;;;13.90;100.00
64243;BME280;50573;51.512;5.386;2023-09-19T03:04:54;168189.81;;;13.80;100.00
64243;BME280;50573;51.512;5.386;2023-09-19T03:15:00;168175.19;;;13.75;100.00
64243;BME280;50573;51.512;5.386;2023-09-19T03:25:03;168184.47;;;13.78;100.00
64243;BME280;50573;51.512;5.386;2023-09-19T03:35:14;168191.16;;;13.81;100.00
64243;BME280;50573;51.512;5.386;2023-09-19T03:45:17;168208.41;;;13.87;100.00
64243;BME280;50573;51.512;5.386;2023-09-19T03:55:27;168234.94;;;13.98;100.00
64243;BME280;50573;51.512;5.386;2023-09-19T04:05:32;168254.91;;;14.05;100.00
64243;BME280;50573;51.512;5.386;2023-09-19T04:15:37;168266.84;;;14.10;100.00
64243;BME280;50573;51.512;5.386;2023-09-19T04:25:42;168284.09;;;14.16;100.00
64243;BME280;50573;51.512;5.386;2023-09-19T04:35:49;168268.19;;;14.10;100.00
64243;BME280;50573;51.512;5.386;2023-09-19T04:45:52;168308.06;;;14.25;100.00
64243;BME280;50573;51.512;5.386;2023-09-19T04:55:58;168359.88;;;14.45;100.00
64243;BME280;50573;51.512;5.386;2023-09-19T05:06:01;168346.56;;;14.40;100.00
64243;BME280;50573;51.512;5.386;2023-09-19T05:16:08;168346.56;;;14.40;100.00
64243;BME280;50573;51.512;5.386;2023-09-19T05:26:12;168346.56;;;14.40;100.00
64243;BME280;50573;51.512;5.386;2023-09-19T05:36:19;168337.31;;;14.36;100.00
64243;BME280;50573;51.512;5.386;2023-09-19T05:46:22;168346.56;;;14.40;100.00
64243;BME280;50573;51.512;5.386;2023-09-19T05:56:26;168353.25;;;14.42;100.00
64243;BME280;50573;51.512;5.386;2023-09-19T06:06:29;168383.81;;;14.54;100.00
64243;BME280;50573;51.512;5.386;2023-09-19T06:16:34;168409.03;;;14.63;100.00
64243;BME280;50573;51.512;5.386;2023-09-19T06:26:37;168426.31;;;14.70;100.00
64243;BME280;50573;51.512;5.386;2023-09-19T06:36:41;168458.19;;;14.82;100.00
64243;BME280;50573;51.512;5.386;2023-09-19T06:46:45;168484.78;;;14.92;100.00
64243;BME280;50573;51.512;5.386;2023-09-19T06:56:54;168521.97;;;15.06;100.00
64243;BME280;50573;51.512;5.386;2023-09-19T07:06:57;168576.50;;;15.26;100.00
64243;BME280;50573;51.512;5.386;2023-09-19T07:17:02;168624.41;;;15.45;100.00
64243;BME280;50573;51.512;5.386;2023-09-19T07:27:05;168682.88;;;15.67;100.00
64243;BME280;50573;51.512;5.386;2023-09-19T07:37:10;168698.81;;;15.73;100.00
64243;BME280;50573;51.512;5.386;2023-09-19T07:47:15;168766.69;;;15.98;100.00
64243;BME280;50573;51.512;5.386;2023-09-19T07:57:19;168819.84;;;16.18;100.00
64243;BME280;50573;51.512;5.386;2023-09-19T08:07:22;168898.38;;;16.48;100.00
64243;BME280;50573;51.512;5.386;2023-09-19T08:17:27;169000.81;;;16.87;100.00
64243;BME280;50573;51.512;5.386;2023-09-19T08:27:30;169040.75;;;17.02;100.00
64243;BME280;50573;51.512;5.386;2023-09-19T08:37:34;169085.97;;;17.19;100.00
64243;BME280;50573;51.512;5.386;2023-09-19T08:47:45;169117.91;;;17.31;100.00
64243;BME280;50573;51.512;5.386;2023-09-19T08:57:51;169136.53;;;17.38;100.00
64243;BME280;50573;51.512;5.386;2023-09-19T09:07:55;169200.50;;;17.62;100.00
64243;BME280;50573;51.512;5.386;2023-09-19T09:18:00;169272.38;;;17.89;100.00
64243;BME280;50573;51.512;5.386;2023-09-19T09:28:06;169299.00;;;17.99;100.00
64243;BME280;50573;51.512;5.386;2023-09-19T09:38:10;169378.88;;;18.29;100.00
64243;BME280;50573;51.512;5.386;2023-09-19T09:48:15;169434.84;;;18.50;99.65
64243;BME280;50573;51.512;5.386;2023-09-19T09:58:22;169536.09;;;18.88;97.82
64243;BME280;50573;51.512;5.386;2023-09-19T10:08:27;169632.00;;;19.24;95.52
64243;BME280;50573;51.512;5.386;2023-09-19T10:18:36;169661.34;;;19.36;92.61
64243;BME280;50573;51.512;5.386;2023-09-19T10:28:41;169724.00;;;19.59;91.76
64243;BME280;50573;51.512;5.386;2023-09-19T10:38:47;169698.69;;;19.50;91.70
64243;BME280;50573;51.512;5.386;2023-09-19T10:48:52;169794.66;;;19.86;87.50
64243;BME280;50573;51.512;5.386;2023-09-19T10:59:07;169880.00;;;20.18;86.81
64243;BME280;50573;51.512;5.386;2023-09-19T11:09:12;169839.94;;;20.03;84.05
64243;BME280;50573;51.512;5.386;2023-09-19T11:30:26;169947.97;;;20.43;82.06
64243;BME280;50573;51.512;5.386;2023-09-19T11:40:33;169977.28;;;20.54;80.35
64243;BME280;50573;51.512;5.386;2023-09-19T11:50:37;170073.31;;;20.91;76.42
64243;BME280;50573;51.512;5.386;2023-09-19T12:00:53;170110.69;;;21.05;77.26
64243;BME280;50573;51.512;5.386;2023-09-19T12:10:59;170130.72;;;21.12;77.80
64243;BME280;50573;51.512;5.386;2023-09-19T12:21:03;170208.09;;;21.41;77.73
64243;BME280;50573;51.512;5.386;2023-09-19T12:31:08;170186.75;;;21.33;77.87
64243;BME280;50573;51.512;5.386;2023-09-19T12:41:15;170152.06;;;21.20;78.81
64243;BME280;50573;51.512;5.386;2023-09-19T12:51:20;170284.09;;;21.70;76.05
64243;BME280;50573;51.512;5.386;2023-09-19T13:01:27;170232.06;;;21.50;76.68
64243;BME280;50573;51.512;5.386;2023-09-19T13:11:36;170392.22;;;22.11;76.60
64243;BME280;50573;51.512;5.386;2023-09-19T13:21:41;170230.72;;;21.50;77.55
64243;BME280;50573;51.512;5.386;2023-09-19T13:31:52;170122.69;;;21.09;77.64
64243;BME280;50573;51.512;5.386;2023-09-19T13:41:57;170149.38;;;21.19;78.73
64243;BME280;50573;51.512;5.386;2023-09-19T13:52:01;170165.34;;;21.25;80.01
64243;BME280;50573;51.512;5.386;2023-09-19T14:02:08;170086.66;;;20.96;80.87
64243;BME280;50573;51.512;5.386;2023-09-19T14:12:11;170093.34;;;20.98;81.94
64243;BME280;50573;51.512;5.386;2023-09-19T14:22:15;170160.06;;;21.23;81.81
64243;BME280;50573;51.512;5.386;2023-09-19T14:32:19;170197.38;;;21.37;80.79
64243;BME280;50573;51.512;5.386;2023-09-19T14:42:23;170178.69;;;21.30;79.60
64243;BME280;50573;51.512;5.386;2023-09-19T14:52:26;170170.69;;;21.27;80.82
64243;BME280;50573;51.512;5.386;2023-09-19T15:02:31;170160.06;;;21.23;83.27
64243;BME280;50573;51.512;5.386;2023-09-19T15:12:45;170146.72;;;21.18;82.86
64243;BME280;50573;51.512;5.386;2023-09-19T15:22:52;170101.34;;;21.01;83.75
64243;BME280;50573;51.512;5.386;2023-09-19T15:32:58;170066.63;;;20.88;84.44
64243;BME280;50573;51.512;5.386;2023-09-19T15:43:03;169989.28;;;20.59;86.59
64243;BME280;50573;51.512;5.386;2023-09-19T15:53:12;169922.66;;;20.34;88.58
64243;BME280;50573;51.512;5.386;2023-09-19T16:03:23;169857.28;;;20.09;89.58
64243;BME280;50573;51.512;5.386;2023-09-19T16:13:30;169850.63;;;20.07;89.93
64243;BME280;50573;51.512;5.386;2023-09-19T16:23:51;169811.97;;;19.92;90.71
64243;BME280;50573;51.512;5.386;2023-09-19T16:33:55;169765.28;;;19.75;90.69
64243;BME280;50573;51.512;5.386;2023-09-19T16:44:03;169749.31;;;19.69;91.09
64243;BME280;50573;51.512;5.386;2023-09-19T16:54:09;169729.34;;;19.61;91.08
64243;BME280;50573;51.512;5.386;2023-09-19T17:04:20;169725.34;;;19.60;92.64
64243;BME280;50573;51.512;5.386;2023-09-19T17:14:24;169712.00;;;19.55;92.80
64243;BME280;50573;51.512;5.386;2023-09-19T17:24:28;169696.00;;;19.49;93.88
64243;BME280;50573;51.512;5.386;2023-09-19T17:34:31;169653.34;;;19.33;94.31
64243;BME280;50573;51.512;5.386;2023-09-19T17:44:36;169637.34;;;19.26;94.04
64243;BME280;50573;51.512;5.386;2023-09-19T17:54:39;169605.34;;;19.14;98.28
64243;BME280;50573;51.512;5.386;2023-09-19T18:04:44;169522.78;;;18.83;100.00
64243;BME280;50573;51.512;5.386;2023-09-19T18:14:47;169512.09;;;18.79;100.00
64243;BME280;50573;51.512;5.386;2023-09-19T18:24:51;169504.13;;;18.76;100.00
64243;BME280;50573;51.512;5.386;2023-09-19T18:34:55;169482.81;;;18.68;100.00
64243;BME280;50573;51.512;5.386;2023-09-19T18:45:00;169496.13;;;18.73;100.00
64243;BME280;50573;51.512;5.386;2023-09-19T18:55:03;169477.47;;;18.66;100.00
64243;BME280;50573;51.512;5.386;2023-09-19T19:05:08;169450.81;;;18.56;100.00
64243;BME280;50573;51.512;5.386;2023-09-19T19:15:12;169434.84;;;18.50;100.00
64243;BME280;50573;51.512;5.386;2023-09-19T19:25:16;169450.81;;;18.56;100.00
64243;BME280;50573;51.512;5.386;2023-09-19T19:35:20;169429.50;;;18.48;100.00
64243;BME280;50573;51.512;5.386;2023-09-19T19:45:25;169437.50;;;18.51;100.00
64243;BME280;50573;51.512;5.386;2023-09-19T19:55:31;169440.19;;;18.52;100.00
64243;BME280;50573;51.512;5.386;2023-09-19T20:05:38;169457.50;;;18.59;100.00
64243;BME280;50573;51.512;5.386;2023-09-19T20:15:53;169466.84;;;18.62;100.00
64243;BME280;50573;51.512;5.386;2023-09-19T20:26:00;169474.81;;;18.65;100.00
64243;BME280;50573;51.512;5.386;2023-09-19T20:36:07;169474.81;;;18.65;99.26
64243;BME280;50573;51.512;5.386;2023-09-19T20:46:12;169498.78;;;18.74;98.73
64243;BME280;50573;51.512;5.386;2023-09-19T20:56:15;169517.44;;;18.81;98.48
64243;BME280;50573;51.512;5.386;2023-09-19T21:06:22;169518.78;;;18.82;98.88
64243;BME280;50573;51.512;5.386;2023-09-19T21:16:25;169505.47;;;18.77;98.98
64243;BME280;50573;51.512;5.386;2023-09-19T21:26:29;169512.09;;;18.79;98.79
64243;BME280;50573;51.512;5.386;2023-09-19T21:36:32;169524.09;;;18.84;99.19
64243;BME280;50573;51.512;5.386;2023-09-19T21:46:37;169520.09;;;18.82;99.51
64243;BME280;50573;51.512;5.386;2023-09-19T21:56:41;169510.75;;;18.79;99.65
64243;BME280;50573;51.512;5.386;2023-09-19T22:06:45;169496.13;;;18.73;100.00
64243;BME280;50573;51.512;5.386;2023-09-19T22:16:48;169493.44;;;18.72;100.00
64243;BME280;50573;51.512;5.386;2023-09-19T22:26:53;169504.13;;;18.76;100.00
64243;BME280;50573;51.512;5.386;2023-09-19T22:36:56;169478.81;;;18.67;100.00
64243;BME280;50573;51.512;5.386;2023-09-19T22:47:04;169469.50;;;18.63;100.00
64243;BME280;50573;51.512;5.386;2023-09-19T22:57:09;169461.50;;;18.60;100.00
64243;BME280;50573;51.512;5.386;2023-09-19T23:07:14;169464.16;;;18.61;100.00
64243;BME280;50573;51.512;5.386;2023-09-19T23:17:17;169429.50;;;18.48;100.00
64243;BME280;50573;51.512;5.386;2023-09-19T23:27:25;169392.19;;;18.34;100.00
64243;BME280;50573;51.512;5.386;2023-09-19T23:37:35;169389.56;;;18.33;100.00
64243;BME280;50573;51.512;5.386;2023-09-19T23:47:39;169352.22;;;18.19;100.00
64243;BME280;50573;51.512;5.386;2023-09-19T23:57:43;169329.63;;;18.11;100.00
